Time;durP1;ratioP1;P1;durP2;ratioP2;P2;SDS_P1;SDS_P2;PMS_P1;PMS_P2;Temp;Humidity;BMP_temperature;BMP_pressure;BME280_temperature;BME280_humidity;BME280_pressure;Samples;Min_cycle;Max_cycle;Signal;HPM_P1;HPM_P2
2023/09/28 00:00:43;;;;;;;4.80;1.90;;;;;;;;;;5093899;28;20056;-60
2023/09/28 00:03:09;;;;;;;2.20;1.50;;;;;;;;;;5091483;28;20063;-60
2023/09/28 00:05:37;;;;;;;3.65;1.88;;;;;;;;;;5079918;28;20044;-60
2023/09/28 00:08:04;;;;;;;2.15;1.70;;;;;;;;;;5074008;28;20052;-59
2023/09/28 00:10:31;;;;;;;5.65;1.58;;;;;;;;;;5074419;28;20052;-60
2023/09/28 00:12:58;;;;;;;2.72;1.40;;;;;;;;;;5073889;28;20059;-60
2023/09/28 00:15:24;;;;;;;2.30;1.63;;;;;;;;;;5073875;28;20063;-59
2023/09/28 00:17:52;;;;;;;2.80;1.52;;;;;;;;;;5073469;28;20063;-58
2023/09/28 00:20:18;;;;;;;3.40;2.08;;;;;;;;;;5072646;28;20063;-59
2023/09/28 00:22:46;;;;;;;2.17;1.58;;;;;;;;;;5073049;28;20055;-59
2023/09/28 00:25:12;;;;;;;2.78;1.80;;;;;;;;;;5073948;28;20052;-59
2023/09/28 00:27:41;;;;;;;2.97;1.80;;;;;;;;;;5073256;28;20055;-59
2023/09/28 00:30:09;;;;;;;2.20;1.33;;;;;;;;;;5073074;28;20055;-59
2023/09/28 00:32:36;;;;;;;3.47;1.60;;;;;;;;;;5073420;28;20474;-59
2023/09/28 00:35:04;;;;;;;2.05;1.30;;;;;;;;;;5073020;28;20056;-59
2023/09/28 00:37:30;;;;;;;2.15;1.38;;;;;;;;;;5072908;28;20053;-57
2023/09/28 00:39:56;;;;;;;2.63;1.50;;;;;;;;;;5073144;28;20067;-57
2023/09/28 00:42:23;;;;;;;2.60;1.40;;;;;;;;;;5073335;28;20049;-57
2023/09/28 00:44:51;;;;;;;2.00;1.50;;;;;;;;;;5072899;28;20063;-57
2023/09/28 00:47:18;;;;;;;3.03;1.60;;;;;;;;;;5073352;28;20478;-57
2023/09/28 00:49:44;;;;;;;2.55;1.55;;;;;;;;;;5073500;28;20052;-57
2023/09/28 00:52:11;;;;;;;3.08;1.40;;;;;;;;;;5073242;28;20055;-57
2023/09/28 00:54:38;;;;;;;3.28;1.52;;;;;;;;;;5073554;28;20067;-57
2023/09/28 00:57:05;;;;;;;2.38;1.38;;;;;;;;;;5072925;28;20474;-57
2023/09/28 00:59:31;;;;;;;1.88;1.40;;;;;;;;;;5072812;28;20045;-57
2023/09/28 01:01:59;;;;;;;2.15;1.52;;;;;;;;;;5072864;28;20071;-58
2023/09/28 01:04:26;;;;;;;4.22;1.70;;;;;;;;;;5072995;28;20057;-58
2023/09/28 01:06:52;;;;;;;2.75;1.58;;;;;;;;;;5072722;28;20061;-58
2023/09/28 01:09:21;;;;;;;2.60;1.60;;;;;;;;;;5078900;28;20059;-57
2023/09/28 01:11:49;;;;;;;2.17;1.52;;;;;;;;;;5092737;28;20412;-58
2023/09/28 01:14:14;;;;;;;2.60;1.80;;;;;;;;;;5093093;28;20051;-57
2023/09/28 01:16:42;;;;;;;4.03;1.65;;;;;;;;;;5091814;28;20131;-58
2023/09/28 01:19:09;;;;;;;2.58;1.85;;;;;;;;;;5092922;28;20382;-58
2023/09/28 01:21:36;;;;;;;3.05;1.75;;;;;;;;;;5092244;28;20048;-58
2023/09/28 01:24:06;;;;;;;2.42;1.60;;;;;;;;;;5084931;28;20075;-58
2023/09/28 01:26:34;;;;;;;3.88;1.88;;;;;;;;;;5072290;28;20064;-58
2023/09/28 01:29:00;;;;;;;2.05;1.27;;;;;;;;;;5072808;28;20052;-58
2023/09/28 01:31:27;;;;;;;2.53;1.52;;;;;;;;;;5072971;28;20052;-58
2023/09/28 01:33:53;;;;;;;7.90;1.67;;;;;;;;;;5072526;28;20048;-58
2023/09/28 01:36:23;;;;;;;3.45;1.75;;;;;;;;;;5071995;28;20588;-58
2023/09/28 01:38:52;;;;;;;2.40;1.52;;;;;;;;;;5074319;28;20516;-58
2023/09/28 01:41:20;;;;;;;2.30;1.38;;;;;;;;;;5091896;28;20052;-58
2023/09/28 01:43:46;;;;;;;3.05;1.80;;;;;;;;;;5091960;28;20516;-58
2023/09/28 01:46:13;;;;;;;3.33;1.75;;;;;;;;;;5091966;28;20135;-58
2023/09/28 01:48:39;;;;;;;2.22;1.67;;;;;;;;;;5094752;28;20044;-58
2023/09/28 01:51:06;;;;;;;3.80;1.83;;;;;;;;;;5096039;28;20043;-58
2023/09/28 01:53:32;;;;;;;6.80;1.95;;;;;;;;;;5092291;28;20063;-59
2023/09/28 01:56:02;;;;;;;2.55;1.50;;;;;;;;;;5075686;28;20049;-58
2023/09/28 01:58:29;;;;;;;1.83;1.15;;;;;;;;;;5081638;28;20080;-58
2023/09/28 02:00:56;;;;;;;5.30;1.95;;;;;;;;;;5096329;28;20381;-58
2023/09/28 02:03:22;;;;;;;2.10;1.50;;;;;;;;;;5096139;28;20060;-58
2023/09/28 02:05:49;;;;;;;2.67;1.40;;;;;;;;;;5095856;28;20054;-58
2023/09/28 02:08:15;;;;;;;1.95;1.00;;;;;;;;;;5093707;28;20055;-58
2023/09/28 02:10:42;;;;;;;2.10;1.40;;;;;;;;;;5075430;28;20498;-59
2023/09/28 02:13:07;;;;;;;2.40;1.55;;;;;;;;;;5075823;28;20394;-58
2023/09/28 02:15:36;;;;;;;1.65;1.33;;;;;;;;;;5085031;28;20135;-58
2023/09/28 02:18:02;;;;;;;1.95;1.45;;;;;;;;;;5095642;28;20059;-58
2023/09/28 02:20:30;;;;;;;1.77;1.27;;;;;;;;;;5094722;28;20048;-58
2023/09/28 02:22:56;;;;;;;3.80;1.23;;;;;;;;;;5095898;28;20056;-58
2023/09/28 02:25:24;;;;;;;2.60;1.25;;;;;;;;;;5077008;28;20044;-58
2023/09/28 02:27:50;;;;;;;2.85;1.40;;;;;;;;;;5075870;28;20474;-58
2023/09/28 02:30:19;;;;;;;3.40;1.50;;;;;;;;;;5075920;28;20514;-58
2023/09/28 02:32:46;;;;;;;2.10;1.63;;;;;;;;;;5075800;28;20059;-58
2023/09/28 02:35:16;;;;;;;2.17;1.40;;;;;;;;;;5075212;28;20059;-58
2023/09/28 02:37:43;;;;;;;2.17;1.23;;;;;;;;;;5075385;28;20048;-58
2023/09/28 02:40:10;;;;;;;3.17;1.40;;;;;;;;;;5075591;28;20052;-58
2023/09/28 02:42:36;;;;;;;1.85;1.23;;;;;;;;;;5074515;28;20052;-58
2023/09/28 02:45:09;;;;;;;3.28;1.67;;;;;;;;;;5074216;28;20106;-59
2023/09/28 02:47:34;;;;;;;2.38;1.50;;;;;;;;;;5075309;28;20049;-58
2023/09/28 02:50:06;;;;;;;3.55;1.52;;;;;;;;;;5074890;28;20123;-59
2023/09/28 02:52:32;;;;;;;3.08;1.60;;;;;;;;;;5075038;28;20052;-58
2023/09/28 02:54:59;;;;;;;2.30;1.20;;;;;;;;;;5077231;28;20115;-59
2023/09/28 02:57:25;;;;;;;2.35;1.40;;;;;;;;;;5074135;28;20056;-59
2023/09/28 02:59:52;;;;;;;3.15;1.98;;;;;;;;;;5090766;28;20052;-59
2023/09/28 03:02:19;;;;;;;2.60;1.25;;;;;;;;;;5095387;28;20048;-60
2023/09/28 03:04:46;;;;;;;2.33;1.15;;;;;;;;;;5094841;28;20048;-59
2023/09/28 03:07:14;;;;;;;1.80;1.20;;;;;;;;;;5094959;28;20044;-59
2023/09/28 03:09:40;;;;;;;3.10;1.50;;;;;;;;;;5081503;28;20427;-59
2023/09/28 03:12:07;;;;;;;1.70;1.13;;;;;;;;;;5075067;28;20474;-60
2023/09/28 03:14:34;;;;;;;2.33;1.48;;;;;;;;;;5076567;28;20505;-60
2023/09/28 03:17:00;;;;;;;3.88;1.20;;;;;;;;;;5095006;28;20044;-60
2023/09/28 03:19:26;;;;;;;3.70;1.88;;;;;;;;;;5094867;28;20055;-60
2023/09/28 03:21:53;;;;;;;2.92;1.42;;;;;;;;;;5094736;28;20052;-59
2023/09/28 03:24:20;;;;;;;2.95;1.30;;;;;;;;;;5084680;28;20413;-59
2023/09/28 03:26:47;;;;;;;1.92;1.40;;;;;;;;;;5074482;28;20057;-59
2023/09/28 03:29:13;;;;;;;2.42;1.30;;;;;;;;;;5074048;28;20151;-59
2023/09/28 03:31:40;;;;;;;1.65;0.95;;;;;;;;;;5074530;28;20147;-59
2023/09/28 03:34:06;;;;;;;2.83;1.75;;;;;;;;;;5074588;28;20409;-59
2023/09/28 03:36:34;;;;;;;2.70;1.40;;;;;;;;;;5074363;28;20052;-59
2023/09/28 03:39:01;;;;;;;2.63;1.58;;;;;;;;;;5074931;28;20432;-59
2023/09/28 03:41:29;;;;;;;3.33;1.55;;;;;;;;;;5081261;28;20060;-59
2023/09/28 03:43:56;;;;;;;2.13;1.77;;;;;;;;;;5073882;28;20056;-59
2023/09/28 03:46:22;;;;;;;2.20;1.48;;;;;;;;;;5074065;28;20063;-58
2023/09/28 03:48:49;;;;;;;2.67;1.77;;;;;;;;;;5074111;28;20048;-59
2023/09/28 03:51:16;;;;;;;2.83;1.83;;;;;;;;;;5073925;28;20053;-59
2023/09/28 03:53:43;;;;;;;3.10;1.60;;;;;;;;;;5074708;28;20052;-59
2023/09/28 03:56:10;;;;;;;2.42;1.45;;;;;;;;;;5073643;28;20075;-59
2023/09/28 03:58:38;;;;;;;2.63;1.80;;;;;;;;;;5080635;28;20052;-59
2023/09/28 04:01:07;;;;;;;2.92;1.40;;;;;;;;;;5093809;28;20051;-59
2023/09/28 04:03:34;;;;;;;4.07;1.70;;;;;;;;;;5094022;28;20070;-59
2023/09/28 04:06:01;;;;;;;3.17;1.50;;;;;;;;;;5093949;28;20056;-59
2023/09/28 04:08:28;;;;;;;2.22;1.55;;;;;;;;;;5092517;28;20059;-58
2023/09/28 04:10:56;;;;;;;2.50;1.60;;;;;;;;;;5074027;28;20071;-58
2023/09/28 04:13:22;;;;;;;2.15;1.48;;;;;;;;;;5073280;28;20052;-57
2023/09/28 04:15:51;;;;;;;3.22;1.60;;;;;;;;;;5078762;28;20052;-59
2023/09/28 04:18:18;;;;;;;2.58;1.50;;;;;;;;;;5073417;28;20505;-59
2023/09/28 04:20:44;;;;;;;2.17;1.30;;;;;;;;;;5083522;28;20074;-59
2023/09/28 04:23:12;;;;;;;3.30;1.75;;;;;;;;;;5093749;28;20056;-58
2023/09/28 04:25:39;;;;;;;2.80;1.70;;;;;;;;;;5079713;28;20051;-58
2023/09/28 04:28:06;;;;;;;2.30;1.55;;;;;;;;;;5077582;28;20048;-58
2023/09/28 04:30:34;;;;;;;2.53;1.50;;;;;;;;;;5086648;28;20043;-59
2023/09/28 04:33:02;;;;;;;3.30;2.05;;;;;;;;;;5082479;28;20048;-59
2023/09/28 04:35:29;;;;;;;2.00;1.30;;;;;;;;;;5092150;28;20051;-60
2023/09/28 04:37:56;;;;;;;2.33;1.50;;;;;;;;;;5093498;28;20052;-60
2023/09/28 04:40:25;;;;;;;2.80;1.90;;;;;;;;;;5084298;28;20485;-60
2023/09/28 04:42:52;;;;;;;;;;;;;;;;;;5086267;28;20405;-60
2023/09/28 04:45:19;;;;;;;2.42;1.67;;;;;;;;;;5091795;28;19970;-60
2023/09/28 04:47:47;;;;;;;35.75;18.48;;;;;;;;;;5086859;28;20508;-60
2023/09/28 04:50:15;;;;;;;23.08;12.32;;;;;;;;;;5077155;28;20401;-60
2023/09/28 04:52:43;;;;;;;5.38;3.05;;;;;;;;;;5075297;28;20067;-60
2023/09/28 04:55:11;;;;;;;2.97;1.60;;;;;;;;;;5079616;28;20058;-60
2023/09/28 04:57:38;;;;;;;3.60;1.83;;;;;;;;;;5086429;28;20052;-59
2023/09/28 05:00:08;;;;;;;3.28;1.50;;;;;;;;;;5090446;28;20067;-60
2023/09/28 05:02:35;;;;;;;3.85;1.67;;;;;;;;;;5076293;28;20051;-60
2023/09/28 05:05:03;;;;;;;3.05;1.77;;;;;;;;;;5086670;28;20404;-60
2023/09/28 05:07:31;;;;;;;2.92;2.05;;;;;;;;;;5088273;28;20067;-61
2023/09/28 05:09:59;;;;;;;2.38;1.40;;;;;;;;;;5074469;28;20059;-60
2023/09/28 05:12:26;;;;;;;4.60;2.28;;;;;;;;;;5073964;28;20067;-59
2023/09/28 05:14:52;;;;;;;3.75;1.75;;;;;;;;;;5092790;28;20051;-59
2023/09/28 05:17:19;;;;;;;4.32;2.10;;;;;;;;;;5089366;28;20054;-59
2023/09/28 05:19:46;;;;;;;2.55;1.48;;;;;;;;;;5085963;28;20051;-60
2023/09/28 05:22:13;;;;;;;2.78;1.55;;;;;;;;;;5079822;28;20052;-60
2023/09/28 05:24:41;;;;;;;2.22;1.55;;;;;;;;;;5078627;28;20477;-60
2023/09/28 05:27:08;;;;;;;3.13;2.22;;;;;;;;;;5090689;28;20056;-60
2023/09/28 05:29:35;;;;;;;4.35;2.15;;;;;;;;;;5088840;28;20377;-61
2023/09/28 05:32:03;;;;;;;2.47;1.92;;;;;;;;;;5088052;28;20385;-60
2023/09/28 05:34:29;;;;;;;4.30;2.40;;;;;;;;;;5087611;28;20405;-60
2023/09/28 05:36:56;;;;;;;3.28;2.05;;;;;;;;;;5092333;28;20048;-60
2023/09/28 05:39:23;;;;;;;2.92;1.73;;;;;;;;;;5089010;28;20048;-60
2023/09/28 05:41:51;;;;;;;3.58;2.10;;;;;;;;;;5073739;28;20394;-60
2023/09/28 05:44:18;;;;;;;3.03;2.10;;;;;;;;;;5071978;28;20060;-60
2023/09/28 05:46:45;;;;;;;6.95;1.77;;;;;;;;;;5072212;28;20060;-60
2023/09/28 05:49:13;;;;;;;5.63;2.42;;;;;;;;;;5071920;28;20049;-60
2023/09/28 05:51:40;;;;;;;2.50;1.85;;;;;;;;;;5082050;28;20067;-60
2023/09/28 05:54:07;;;;;;;3.25;2.03;;;;;;;;;;5077313;28;20398;-59
2023/09/28 05:56:33;;;;;;;4.03;2.28;;;;;;;;;;5072097;28;20494;-59
2023/09/28 05:59:02;;;;;;;2.95;1.80;;;;;;;;;;5072462;28;20059;-60
2023/09/28 06:01:29;;;;;;;2.80;1.65;;;;;;;;;;5073249;28;20048;-60
2023/09/28 06:03:55;;;;;;;2.80;1.80;;;;;;;;;;5073318;28;20064;-61
2023/09/28 06:06:23;;;;;;;2.75;1.67;;;;;;;;;;5085988;28;20056;-60
2023/09/28 06:08:50;;;;;;;2.40;1.70;;;;;;;;;;5087263;28;20052;-60
2023/09/28 06:11:17;;;;;;;5.20;2.53;;;;;;;;;;5092159;28;20048;-60
2023/09/28 06:13:44;;;;;;;3.35;2.17;;;;;;;;;;5091372;28;20051;-61
2023/09/28 06:16:13;;;;;;;2.65;2.13;;;;;;;;;;5091483;28;20067;-60
2023/09/28 06:18:41;;;;;;;2.80;2.05;;;;;;;;;;5091880;28;20048;-60
2023/09/28 06:21:09;;;;;;;4.65;1.75;;;;;;;;;;5091653;28;20412;-60
2023/09/28 06:23:36;;;;;;;3.85;1.98;;;;;;;;;;5085261;28;20437;-60
2023/09/28 06:26:03;;;;;;;4.20;2.10;;;;;;;;;;5071416;28;20394;-60
2023/09/28 06:28:30;;;;;;;4.90;2.28;;;;;;;;;;5071969;28;20052;-60
2023/09/28 06:30:57;;;;;;;3.72;2.70;;;;;;;;;;5071680;28;20060;-60
2023/09/28 06:33:25;;;;;;;3.95;1.92;;;;;;;;;;5075775;28;20052;-60
2023/09/28 06:35:53;;;;;;;3.17;1.50;;;;;;;;;;5095191;28;20048;-60
2023/09/28 06:38:20;;;;;;;5.93;1.98;;;;;;;;;;5093555;28;20075;-60
2023/09/28 06:40:47;;;;;;;5.60;2.15;;;;;;;;;;5075285;28;20053;-60
2023/09/28 06:43:14;;;;;;;11.15;2.22;;;;;;;;;;5075198;28;20059;-60
2023/09/28 06:45:41;;;;;;;4.18;2.35;;;;;;;;;;5091226;28;20052;-60
2023/09/28 06:48:07;;;;;;;3.05;1.80;;;;;;;;;;5095655;28;20481;-60
2023/09/28 06:50:39;;;;;;;3.85;2.00;;;;;;;;;;5093899;28;20044;-60
2023/09/28 06:53:05;;;;;;;4.30;1.88;;;;;;;;;;5095066;28;20545;-60
2023/09/28 06:55:32;;;;;;;4.60;2.15;;;;;;;;;;5076725;28;20075;-60
2023/09/28 06:57:59;;;;;;;2.53;1.75;;;;;;;;;;5075496;28;20056;-61
2023/09/28 07:00:25;;;;;;;8.00;2.17;;;;;;;;;;5074790;28;20061;-60
2023/09/28 07:02:52;;;;;;;4.38;2.20;;;;;;;;;;5075392;28;20466;-60
2023/09/28 07:05:18;;;;;;;3.35;1.70;;;;;;;;;;5074845;28;20481;-61
2023/09/28 07:07:47;;;;;;;3.42;1.38;;;;;;;;;;5075239;28;20063;-61
2023/09/28 07:10:13;;;;;;;5.00;2.27;;;;;;;;;;5074934;28;20067;-61
2023/09/28 07:12:41;;;;;;;5.63;2.38;;;;;;;;;;5075179;28;20048;-61
2023/09/28 07:15:08;;;;;;;4.35;2.05;;;;;;;;;;5074697;28;20055;-61
2023/09/28 07:17:36;;;;;;;3.45;2.10;;;;;;;;;;5074708;28;20049;-60
2023/09/28 07:20:05;;;;;;;3.80;1.90;;;;;;;;;;5074832;28;20059;-60
2023/09/28 07:22:32;;;;;;;3.30;1.75;;;;;;;;;;5074502;28;20044;-60
2023/09/28 07:25:00;;;;;;;3.10;2.00;;;;;;;;;;5074756;28;20397;-60
2023/09/28 07:27:31;;;;;;;3.73;2.10;;;;;;;;;;5074617;28;20053;-60
2023/09/28 07:29:58;;;;;;;4.35;2.38;;;;;;;;;;5077447;28;20048;-60
2023/09/28 07:32:24;;;;;;;3.88;2.75;;;;;;;;;;5094768;28;20052;-60
2023/09/28 07:34:52;;;;;;;5.60;1.90;;;;;;;;;;5094426;28;20052;-61
2023/09/28 07:37:19;;;;;;;2.75;1.52;;;;;;;;;;5094455;28;20047;-61
2023/09/28 07:39:46;;;;;;;2.95;1.83;;;;;;;;;;5091962;28;20059;-61
2023/09/28 07:42:14;;;;;;;3.53;1.30;;;;;;;;;;5094522;28;20389;-61
2023/09/28 07:44:41;;;;;;;3.75;1.85;;;;;;;;;;5093488;28;20063;-61
2023/09/28 07:47:08;;;;;;;2.60;1.45;;;;;;;;;;5086735;28;20053;-61
2023/09/28 07:49:34;;;;;;;2.40;1.73;;;;;;;;;;5074125;28;20059;-61
2023/09/28 07:52:02;;;;;;;2.45;1.20;;;;;;;;;;5073600;28;20049;-61
2023/09/28 07:54:29;;;;;;;3.22;1.77;;;;;;;;;;5074465;28;20053;-61
2023/09/28 07:56:56;;;;;;;4.45;1.90;;;;;;;;;;5073871;28;20390;-61
2023/09/28 07:59:24;;;;;;;3.35;1.50;;;;;;;;;;5073863;28;20498;-60
2023/09/28 08:01:51;;;;;;;4.85;2.42;;;;;;;;;;5074028;28;20049;-60
2023/09/28 08:04:18;;;;;;;3.72;1.75;;;;;;;;;;5073984;28;20068;-61
2023/09/28 08:06:44;;;;;;;2.55;1.50;;;;;;;;;;5073974;28;20417;-61
2023/09/28 08:09:13;;;;;;;3.95;1.90;;;;;;;;;;5074557;28;20063;-60
2023/09/28 08:11:40;;;;;;;6.93;2.47;;;;;;;;;;5073834;28;20059;-61
2023/09/28 08:14:09;;;;;;;3.15;1.65;;;;;;;;;;5073405;28;20505;-61
2023/09/28 08:16:37;;;;;;;4.60;2.00;;;;;;;;;;5073555;28;20052;-61
2023/09/28 08:19:05;;;;;;;2.28;1.70;;;;;;;;;;5073299;28;20064;-60
2023/09/28 08:21:31;;;;;;;4.67;2.07;;;;;;;;;;5073317;28;20074;-61
2023/09/28 08:23:59;;;;;;;3.20;1.90;;;;;;;;;;5073881;28;20497;-57
2023/09/28 08:26:25;;;;;;;4.30;2.20;;;;;;;;;;5086157;28;20052;-57
2023/09/28 08:28:52;;;;;;;3.15;1.88;;;;;;;;;;5091793;28;20052;-58
2023/09/28 08:31:19;;;;;;;2.28;1.63;;;;;;;;;;5093378;28;20044;-58
2023/09/28 08:33:48;;;;;;;2.70;1.95;;;;;;;;;;5093326;28;20063;-57
2023/09/28 08:36:15;;;;;;;2.75;1.80;;;;;;;;;;5092776;28;20048;-57
2023/09/28 08:38:42;;;;;;;3.55;1.90;;;;;;;;;;5084780;28;20063;-57
2023/09/28 08:41:10;;;;;;;3.33;1.80;;;;;;;;;;5072742;28;20485;-57
2023/09/28 08:43:40;;;;;;;5.43;2.50;;;;;;;;;;5073060;28;20057;-57
2023/09/28 08:46:07;;;;;;;3.53;2.05;;;;;;;;;;5072940;28;20060;-58
2023/09/28 08:48:34;;;;;;;3.10;1.60;;;;;;;;;;5072668;28;20390;-57
2023/09/28 08:51:05;;;;;;;3.40;2.08;;;;;;;;;;5072640;28;20055;-58
2023/09/28 08:53:32;;;;;;;3.38;2.22;;;;;;;;;;5073249;28;20049;-58
2023/09/28 08:56:03;;;;;;;5.65;2.40;;;;;;;;;;5083873;28;20400;-58
2023/09/28 08:58:29;;;;;;;4.57;1.90;;;;;;;;;;5092849;28;20515;-58
2023/09/28 09:00:57;;;;;;;6.30;3.45;;;;;;;;;;5092829;28;20056;-58
2023/09/28 09:03:24;;;;;;;5.80;2.92;;;;;;;;;;5092899;28;20048;-58
2023/09/28 09:05:52;;;;;;;4.22;2.22;;;;;;;;;;5075399;28;20147;-58
2023/09/28 09:08:23;;;;;;;4.43;2.13;;;;;;;;;;5073799;28;20477;-58
2023/09/28 09:10:51;;;;;;;3.50;2.13;;;;;;;;;;5072846;28;20057;-58
2023/09/28 09:13:18;;;;;;;6.78;2.70;;;;;;;;;;5072859;28;20052;-57
2023/09/28 09:15:44;;;;;;;3.60;2.55;;;;;;;;;;5072391;28;20048;-58
2023/09/28 09:18:16;;;;;;;5.85;2.10;;;;;;;;;;5072753;28;20052;-58
2023/09/28 09:20:43;;;;;;;3.53;1.85;;;;;;;;;;5072662;28;20059;-58
2023/09/28 09:23:13;;;;;;;4.18;2.60;;;;;;;;;;5072004;28;20044;-58
2023/09/28 09:25:46;;;;;;;5.47;2.38;;;;;;;;;;5086852;28;20493;-58
2023/09/28 09:28:13;;;;;;;4.38;2.08;;;;;;;;;;5082489;28;20048;-58
2023/09/28 09:30:41;;;;;;;3.97;2.53;;;;;;;;;;5072392;28;20101;-58
2023/09/28 09:33:08;;;;;;;3.47;1.75;;;;;;;;;;5072526;28;20052;-58
2023/09/28 09:35:35;;;;;;;4.93;2.10;;;;;;;;;;5072313;28;20075;-58
2023/09/28 09:38:02;;;;;;;5.78;2.42;;;;;;;;;;5073164;28;20048;-58
2023/09/28 09:40:30;;;;;;;5.28;1.90;;;;;;;;;;5071258;28;20063;-58
2023/09/28 09:43:07;;;;;;;3.55;1.70;;;;;;;;;;5072497;28;20237;-58
2023/09/28 09:45:36;;;;;;;3.35;2.10;;;;;;;;;;5071681;28;20049;-59
2023/09/28 09:48:03;;;;;;;3.75;1.70;;;;;;;;;;5072456;28;20052;-59
2023/09/28 09:50:32;;;;;;;6.63;2.08;;;;;;;;;;5071672;28;20059;-59
2023/09/28 09:53:00;;;;;;;4.53;2.05;;;;;;;;;;5073155;28;20045;-59
2023/09/28 09:55:27;;;;;;;3.25;1.55;;;;;;;;;;5072056;28;20053;-59
2023/09/28 09:57:57;;;;;;;4.57;2.28;;;;;;;;;;5072587;28;20055;-58
2023/09/28 10:00:26;;;;;;;4.00;1.75;;;;;;;;;;5072378;28;20166;-59
2023/09/28 10:02:55;;;;;;;3.55;2.20;;;;;;;;;;5071916;28;20049;-59
2023/09/28 10:05:21;;;;;;;;;;;;;;;;;;5072268;28;20127;-58
2023/09/28 10:07:49;;;;;;;1.98;1.48;;;;;;;;;;5089611;28;19931;-58
2023/09/28 10:10:18;;;;;;;3.42;1.88;;;;;;;;;;5076153;28;20049;-59
2023/09/28 10:12:46;;;;;;;3.28;2.28;;;;;;;;;;5076105;28;20477;-59
2023/09/28 10:15:13;;;;;;;2.70;1.77;;;;;;;;;;5075571;28;20063;-58
2023/09/28 10:17:42;;;;;;;3.33;1.73;;;;;;;;;;5075947;28;20409;-58
2023/09/28 10:20:10;;;;;;;3.95;1.95;;;;;;;;;;5075691;28;20053;-59
2023/09/28 10:22:41;;;;;;;8.02;1.80;;;;;;;;;;5094911;28;20508;-58
2023/09/28 10:25:08;;;;;;;3.40;1.83;;;;;;;;;;5084474;28;20417;-58
2023/09/28 10:27:38;;;;;;;3.42;2.00;;;;;;;;;;5078482;28;20056;-58
2023/09/28 10:30:19;;;;;;;3.70;1.90;;;;;;;;;;5075283;28;20052;-59
2023/09/28 10:32:50;;;;;;;4.07;1.80;;;;;;;;;;5083561;28;20052;-59
2023/09/28 10:35:30;;;;;;;3.33;1.85;;;;;;;;;;5095519;28;20056;-58
2023/09/28 10:38:16;;;;;;;3.85;1.83;;;;;;;;;;5095988;28;20409;-58
2023/09/28 10:40:44;;;;;;;2.97;2.00;;;;;;;;;;5090280;28;20059;-59
2023/09/28 10:43:11;;;;;;;4.10;2.25;;;;;;;;;;5075466;28;20048;-58
2023/09/28 10:45:38;;;;;;;3.85;2.10;;;;;;;;;;5074844;28;20410;-58
2023/09/28 10:48:08;;;;;;;4.32;2.55;;;;;;;;;;5075392;28;20068;-58
2023/09/28 10:50:37;;;;;;;2.55;1.85;;;;;;;;;;5074688;28;20060;-58
2023/09/28 10:53:04;;;;;;;;;;;;;;;;;;5075690;28;20374;-58
2023/09/28 10:55:31;;;;;;;3.03;2.03;;;;;;;;;;5075855;28;19921;-59
2023/09/28 10:58:05;;;;;;;3.15;2.08;;;;;;;;;;5074633;28;20052;-59
2023/09/28 11:00:33;;;;;;;2.75;1.95;;;;;;;;;;5074508;28;20064;-58
2023/09/28 11:03:00;;;;;;;4.75;2.17;;;;;;;;;;5074972;28;20048;-59
2023/09/28 11:05:32;;;;;;;3.97;1.75;;;;;;;;;;5074456;28;20071;-58
2023/09/28 11:08:00;;;;;;;6.30;2.55;;;;;;;;;;5074846;28;20063;-59
2023/09/28 11:10:27;;;;;;;5.53;2.17;;;;;;;;;;5075090;28;20056;-59
2023/09/28 11:12:53;;;;;;;5.78;2.15;;;;;;;;;;5074850;28;20067;-59
2023/09/28 11:15:20;;;;;;;3.83;1.95;;;;;;;;;;5074782;28;20053;-58
2023/09/28 11:17:50;;;;;;;3.88;1.95;;;;;;;;;;5074885;28;20405;-58
2023/09/28 11:20:19;;;;;;;3.25;2.40;;;;;;;;;;5073542;28;20417;-58
2023/09/28 11:22:54;;;;;;;4.10;2.30;;;;;;;;;;5074327;28;20045;-59
2023/09/28 11:25:21;;;;;;;4.55;2.65;;;;;;;;;;5088095;28;20481;-58
2023/09/28 11:27:48;;;;;;;4.57;2.65;;;;;;;;;;5094369;28;20420;-59
2023/09/28 11:30:19;;;;;;;4.90;2.20;;;;;;;;;;5094785;28;20056;-59
2023/09/28 11:32:50;;;;;;;3.85;2.47;;;;;;;;;;5094656;28;20063;-60
2023/09/28 11:35:17;;;;;;;4.97;2.53;;;;;;;;;;5094178;28;20051;-59
2023/09/28 11:37:44;;;;;;;3.95;2.33;;;;;;;;;;5094605;28;20047;-59
2023/09/28 11:40:12;;;;;;;4.00;2.33;;;;;;;;;;5078366;28;20060;-59
2023/09/28 11:42:39;;;;;;;4.30;2.65;;;;;;;;;;5089049;28;20059;-59
2023/09/28 11:45:08;;;;;;;4.25;2.47;;;;;;;;;;5094118;28;20059;-59
2023/09/28 11:47:36;;;;;;;3.25;2.92;;;;;;;;;;5091674;28;20043;-59
2023/09/28 11:50:05;;;;;;;3.38;2.58;;;;;;;;;;5094266;28;20493;-60
2023/09/28 11:52:34;;;;;;;3.42;2.38;;;;;;;;;;5094272;28;20052;-59
2023/09/28 11:55:02;;;;;;;3.55;2.58;;;;;;;;;;5081258;28;20059;-59
2023/09/28 11:57:33;;;;;;;4.80;2.55;;;;;;;;;;5074340;28;20135;-59
2023/09/28 12:00:01;;;;;;;4.40;2.60;;;;;;;;;;5074227;28;20504;-59
2023/09/28 12:02:28;;;;;;;3.90;2.93;;;;;;;;;;5073970;28;20063;-59
2023/09/28 12:04:56;;;;;;;5.63;2.65;;;;;;;;;;5073659;28;20056;-58
2023/09/28 12:07:22;;;;;;;4.13;2.30;;;;;;;;;;5076121;28;20072;-59
2023/09/28 12:09:49;;;;;;;5.05;2.80;;;;;;;;;;5084783;28;20053;-59
2023/09/28 12:12:17;;;;;;;3.50;2.50;;;;;;;;;;5073673;28;20052;-59
2023/09/28 12:14:45;;;;;;;3.17;2.70;;;;;;;;;;5089194;28;20485;-59
2023/09/28 12:17:14;;;;;;;3.97;2.80;;;;;;;;;;5093846;28;20059;-59
2023/09/28 12:19:40;;;;;;;5.60;2.75;;;;;;;;;;5093753;28;20056;-59
2023/09/28 12:22:08;;;;;;;3.72;2.42;;;;;;;;;;5084045;28;20040;-59
2023/09/28 12:24:35;;;;;;;2.90;2.38;;;;;;;;;;5074593;28;20044;-59
2023/09/28 12:27:04;;;;;;;4.57;2.40;;;;;;;;;;5073468;28;20048;-59
2023/09/28 12:29:30;;;;;;;;;;;;;;;;;;5073928;28;20067;-58
2023/09/28 12:31:59;;;;;;;3.60;2.60;;;;;;;;;;5073017;28;19927;-59
2023/09/28 12:34:26;;;;;;;4.22;2.40;;;;;;;;;;5072901;28;20053;-59
2023/09/28 12:36:53;;;;;;;3.88;2.13;;;;;;;;;;5073373;28;20489;-59
2023/09/28 12:39:21;;;;;;;3.72;2.38;;;;;;;;;;5073390;28;20048;-59
2023/09/28 12:41:48;;;;;;;3.70;2.35;;;;;;;;;;5073591;28;20063;-59
2023/09/28 12:44:17;;;;;;;3.70;2.80;;;;;;;;;;5072760;28;20490;-59
2023/09/28 12:46:44;;;;;;;4.82;2.83;;;;;;;;;;5073088;28;20052;-59
2023/09/28 12:49:15;;;;;;;4.65;2.38;;;;;;;;;;5072945;28;20370;-59
2023/09/28 12:51:45;;;;;;;2.85;2.00;;;;;;;;;;5072949;28;20052;-59
2023/09/28 12:54:13;;;;;;;3.53;2.33;;;;;;;;;;5073598;28;20413;-59
2023/09/28 12:56:40;;;;;;;3.53;2.40;;;;;;;;;;5073085;28;20053;-59
2023/09/28 12:59:07;;;;;;;3.72;2.75;;;;;;;;;;5072719;28;20055;-60
2023/09/28 13:01:34;;;;;;;3.60;2.42;;;;;;;;;;5072569;28;20389;-59
2023/09/28 13:04:04;;;;;;;4.57;2.53;;;;;;;;;;5072269;28;20056;-59
2023/09/28 13:06:33;;;;;;;4.05;2.00;;;;;;;;;;5072353;28;20504;-59
2023/09/28 13:09:00;;;;;;;2.40;1.90;;;;;;;;;;5072806;28;20052;-59
2023/09/28 13:11:27;;;;;;;3.70;2.17;;;;;;;;;;5072580;28;20056;-58
2023/09/28 13:13:55;;;;;;;3.28;2.08;;;;;;;;;;5083356;28;20474;-58
2023/09/28 13:16:22;;;;;;;3.88;2.60;;;;;;;;;;5092903;28;20056;-59
2023/09/28 13:18:50;;;;;;;2.92;1.88;;;;;;;;;;5092694;28;20048;-59
2023/09/28 13:21:16;;;;;;;3.00;2.35;;;;;;;;;;5092621;28;20066;-59
2023/09/28 13:23:45;;;;;;;4.05;2.00;;;;;;;;;;5083344;28;20075;-58
2023/09/28 13:26:13;;;;;;;3.60;1.85;;;;;;;;;;5092507;28;20062;-59
2023/09/28 13:28:40;;;;;;;2.60;2.05;;;;;;;;;;5092906;28;20051;-59
2023/09/28 13:31:08;;;;;;;3.72;2.00;;;;;;;;;;5092557;28;20401;-59
2023/09/28 13:33:36;;;;;;;3.72;1.88;;;;;;;;;;5092761;28;20048;-59
2023/09/28 13:36:06;;;;;;;2.40;1.70;;;;;;;;;;5092423;28;20056;-58
2023/09/28 13:38:33;;;;;;;3.25;2.20;;;;;;;;;;5090711;28;20059;-59
2023/09/28 13:41:01;;;;;;;3.10;1.95;;;;;;;;;;5092379;28;20052;-59
2023/09/28 13:43:28;;;;;;;3.60;2.05;;;;;;;;;;5093496;28;20390;-58
2023/09/28 13:45:56;;;;;;;2.75;2.20;;;;;;;;;;5096362;28;20414;-59
2023/09/28 13:48:24;;;;;;;4.38;1.88;;;;;;;;;;5096203;28;20055;-58
2023/09/28 13:50:55;;;;;;;;;;;;;;;;;;5097201;28;20408;-58
2023/09/28 13:53:21;;;;;;;2.58;2.08;;;;;;;;;;5094393;28;20137;-58
2023/09/28 13:55:50;;;;;;;2.60;1.95;;;;;;;;;;5096317;28;20063;-58
2023/09/28 13:58:19;;;;;;;2.22;1.90;;;;;;;;;;5096518;28;20059;-58
2023/09/28 14:00:49;;;;;;;3.65;1.90;;;;;;;;;;5096385;28;20067;-59
2023/09/28 14:03:16;;;;;;;4.85;2.30;;;;;;;;;;5096653;28;20493;-59
2023/09/28 14:05:43;;;;;;;2.60;1.65;;;;;;;;;;5096067;28;20451;-58
2023/09/28 14:08:11;;;;;;;3.38;2.35;;;;;;;;;;5085283;28;20048;-59
2023/09/28 14:10:38;;;;;;;2.10;1.77;;;;;;;;;;5084089;28;20059;-58
2023/09/28 14:13:05;;;;;;;3.53;2.05;;;;;;;;;;5096358;28;20051;-59
2023/09/28 14:15:33;;;;;;;2.55;1.65;;;;;;;;;;5095682;28;20529;-58
2023/09/28 14:18:02;;;;;;;3.70;1.90;;;;;;;;;;5096314;28;20052;-58
2023/09/28 14:20:29;;;;;;;3.70;2.15;;;;;;;;;;5095818;28;20059;-59
2023/09/28 14:22:56;;;;;;;3.22;1.92;;;;;;;;;;5093029;28;20052;-59
2023/09/28 14:25:23;;;;;;;3.80;2.03;;;;;;;;;;5095572;28;20052;-59
2023/09/28 14:27:50;;;;;;;3.92;2.15;;;;;;;;;;5096072;28;20382;-59
2023/09/28 14:30:17;;;;;;;3.10;2.30;;;;;;;;;;5095773;28;20493;-59
2023/09/28 14:32:46;;;;;;;3.60;1.85;;;;;;;;;;5095860;28;20426;-58
2023/09/28 14:35:15;;;;;;;3.13;2.00;;;;;;;;;;5095295;28;20051;-59
2023/09/28 14:37:42;;;;;;;3.80;1.80;;;;;;;;;;5094143;28;20408;-59
2023/09/28 14:40:12;;;;;;;2.65;1.92;;;;;;;;;;5095521;28;20494;-59
2023/09/28 14:42:40;;;;;;;5.68;3.08;;;;;;;;;;5095701;28;20048;-59
2023/09/28 14:45:08;;;;;;;3.38;2.58;;;;;;;;;;5095168;28;20499;-59